sensor_id;sensor_type;location;lat;lon;timestamp;temperature;humidity
5960;DHT22;3006;50.956;7.002;2023-07-09T00:01:26;25.00;96.30
5960;DHT22;3006;50.956;7.002;2023-07-09T00:03:54;25.00;96.50
5960;DHT22;3006;50.956;7.002;2023-07-09T00:06:22;24.90;96.70
5960;DHT22;3006;50.956;7.002;2023-07-09T00:08:52;24.90;96.80
5960;DHT22;3006;50.956;7.002;2023-07-09T00:11:20;24.90;96.90
5960;DHT22;3006;50.956;7.002;2023-07-09T00:13:48;24.80;97.10
5960;DHT22;3006;50.956;7.002;2023-07-09T00:16:21;24.80;97.30
5960;DHT22;3006;50.956;7.002;2023-07-09T00:18:51;24.80;97.30
5960;DHT22;3006;50.956;7.002;2023-07-09T00:21:20;24.80;97.40
5960;DHT22;3006;50.956;7.002;2023-07-09T00:23:52;24.80;97.50
5960;DHT22;3006;50.956;7.002;2023-07-09T00:26:20;24.70;97.70
5960;DHT22;3006;50.956;7.002;2023-07-09T00:28:50;24.70;97.70
5960;DHT22;3006;50.956;7.002;2023-07-09T00:31:18;24.60;97.90
5960;DHT22;3006;50.956;7.002;2023-07-09T00:33:48;24.60;97.90
5960;DHT22;3006;50.956;7.002;2023-07-09T00:36:18;24.50;98.20
5960;DHT22;3006;50.956;7.002;2023-07-09T00:38:47;24.50;98.30
5960;DHT22;3006;50.956;7.002;2023-07-09T00:41:19;24.50;98.30
5960;DHT22;3006;50.956;7.002;2023-07-09T00:43:49;24.50;98.50
5960;DHT22;3006;50.956;7.002;2023-07-09T00:49:27;24.50;98.70
5960;DHT22;3006;50.956;7.002;2023-07-09T00:51:57;24.40;99.10
5960;DHT22;3006;50.956;7.002;2023-07-09T00:54:32;24.30;99.50
5960;DHT22;3006;50.956;7.002;2023-07-09T00:57:07;24.20;99.80
5960;DHT22;3006;50.956;7.002;2023-07-09T00:59:37;24.20;99.90
5960;DHT22;3006;50.956;7.002;2023-07-09T01:02:07;24.10;99.90
5960;DHT22;3006;50.956;7.002;2023-07-09T01:04:35;24.10;99.90
5960;DHT22;3006;50.956;7.002;2023-07-09T01:07:05;24.20;99.90
5960;DHT22;3006;50.956;7.002;2023-07-09T01:09:34;24.20;99.90
5960;DHT22;3006;50.956;7.002;2023-07-09T01:12:10;24.10;99.90
5960;DHT22;3006;50.956;7.002;2023-07-09T01:14:39;24.20;99.90
5960;DHT22;3006;50.956;7.002;2023-07-09T01:17:09;24.10;99.90
5960;DHT22;3006;50.956;7.002;2023-07-09T01:19:42;24.10;99.90
5960;DHT22;3006;50.956;7.002;2023-07-09T01:22:14;24.10;99.90
5960;DHT22;3006;50.956;7.002;2023-07-09T01:24:52;24.10;99.90
5960;DHT22;3006;50.956;7.002;2023-07-09T01:27:23;24.00;99.90
5960;DHT22;3006;50.956;7.002;2023-07-09T01:29:54;24.00;99.90
5960;DHT22;3006;50.956;7.002;2023-07-09T01:32:22;24.00;99.90
5960;DHT22;3006;50.956;7.002;2023-07-09T01:34:52;23.90;99.90
5960;DHT22;3006;50.956;7.002;2023-07-09T01:37:24;23.90;99.90
5960;DHT22;3006;50.956;7.002;2023-07-09T01:39:53;23.90;99.90
5960;DHT22;3006;50.956;7.002;2023-07-09T01:42:23;24.00;99.90
5960;DHT22;3006;50.956;7.002;2023-07-09T01:44:53;24.00;99.90
5960;DHT22;3006;50.956;7.002;2023-07-09T01:47:22;23.90;99.90
5960;DHT22;3006;50.956;7.002;2023-07-09T01:49:52;23.90;99.90
5960;DHT22;3006;50.956;7.002;2023-07-09T01:52:28;23.90;99.90
5960;DHT22;3006;50.956;7.002;2023-07-09T01:54:57;23.80;99.90
5960;DHT22;3006;50.956;7.002;2023-07-09T01:57:26;23.70;99.90
5960;DHT22;3006;50.956;7.002;2023-07-09T02:00:02;23.70;99.90
5960;DHT22;3006;50.956;7.002;2023-07-09T02:02:39;23.80;99.90
5960;DHT22;3006;50.956;7.002;2023-07-09T02:05:11;23.80;99.90
5960;DHT22;3006;50.956;7.002;2023-07-09T02:07:42;23.70;99.90
5960;DHT22;3006;50.956;7.002;2023-07-09T02:10:11;23.70;99.90
5960;DHT22;3006;50.956;7.002;2023-07-09T02:12:39;23.60;99.90
5960;DHT22;3006;50.956;7.002;2023-07-09T02:15:10;23.60;99.90
5960;DHT22;3006;50.956;7.002;2023-07-09T02:17:39;23.50;99.90
5960;DHT22;3006;50.956;7.002;2023-07-09T02:20:08;23.40;99.90
5960;DHT22;3006;50.956;7.002;2023-07-09T02:22:38;23.30;99.90
5960;DHT22;3006;50.956;7.002;2023-07-09T02:25:08;23.30;99.90
5960;DHT22;3006;50.956;7.002;2023-07-09T02:27:38;23.20;99.90
5960;DHT22;3006;50.956;7.002;2023-07-09T02:30:07;23.20;99.90
5960;DHT22;3006;50.956;7.002;2023-07-09T02:32:35;23.20;99.90
5960;DHT22;3006;50.956;7.002;2023-07-09T02:35:04;23.20;99.90
5960;DHT22;3006;50.956;7.002;2023-07-09T02:37:32;23.20;99.90
5960;DHT22;3006;50.956;7.002;2023-07-09T02:40:00;23.10;99.90
5960;DHT22;3006;50.956;7.002;2023-07-09T02:42:30;23.10;99.90
5960;DHT22;3006;50.956;7.002;2023-07-09T02:44:58;23.00;99.90
5960;DHT22;3006;50.956;7.002;2023-07-09T02:47:29;23.00;99.90
5960;DHT22;3006;50.956;7.002;2023-07-09T02:49:59;23.10;99.90
5960;DHT22;3006;50.956;7.002;2023-07-09T02:52:27;23.10;99.90
5960;DHT22;3006;50.956;7.002;2023-07-09T02:54:55;23.10;99.90
5960;DHT22;3006;50.956;7.002;2023-07-09T02:57:24;23.10;99.90
5960;DHT22;3006;50.956;7.002;2023-07-09T02:59:53;23.10;99.90
5960;DHT22;3006;50.956;7.002;2023-07-09T03:02:21;23.10;99.90
5960;DHT22;3006;50.956;7.002;2023-07-09T03:04:49;23.20;99.90
5960;DHT22;3006;50.956;7.002;2023-07-09T03:07:18;23.10;99.90
5960;DHT22;3006;50.956;7.002;2023-07-09T03:09:46;23.10;99.90
5960;DHT22;3006;50.956;7.002;2023-07-09T03:12:14;23.10;99.90
5960;DHT22;3006;50.956;7.002;2023-07-09T03:14:42;23.10;99.90
5960;DHT22;3006;50.956;7.002;2023-07-09T03:17:12;23.10;99.90
5960;DHT22;3006;50.956;7.002;2023-07-09T03:19:40;23.00;99.90
5960;DHT22;3006;50.956;7.002;2023-07-09T03:22:08;23.10;99.90
5960;DHT22;3006;50.956;7.002;2023-07-09T03:24:36;23.10;99.90
5960;DHT22;3006;50.956;7.002;2023-07-09T03:27:05;23.10;99.90
5960;DHT22;3006;50.956;7.002;2023-07-09T03:29:33;22.90;99.90
5960;DHT22;3006;50.956;7.002;2023-07-09T03:32:01;22.90;99.90
5960;DHT22;3006;50.956;7.002;2023-07-09T03:34:30;22.90;99.90
5960;DHT22;3006;50.956;7.002;2023-07-09T03:36:58;22.90;99.90
5960;DHT22;3006;50.956;7.002;2023-07-09T03:39:27;22.90;99.90
5960;DHT22;3006;50.956;7.002;2023-07-09T03:41:55;23.00;99.90
5960;DHT22;3006;50.956;7.002;2023-07-09T03:44:23;23.00;99.90
5960;DHT22;3006;50.956;7.002;2023-07-09T03:46:51;22.90;99.90
5960;DHT22;3006;50.956;7.002;2023-07-09T03:49:19;22.80;99.90
5960;DHT22;3006;50.956;7.002;2023-07-09T03:51:48;22.80;99.90
5960;DHT22;3006;50.956;7.002;2023-07-09T03:54:16;22.80;99.90
5960;DHT22;3006;50.956;7.002;2023-07-09T03:56:44;22.80;99.90
5960;DHT22;3006;50.956;7.002;2023-07-09T03:59:12;22.80;99.90
5960;DHT22;3006;50.956;7.002;2023-07-09T04:01:40;22.80;99.90
5960;DHT22;3006;50.956;7.002;2023-07-09T04:04:13;22.90;99.90
5960;DHT22;3006;50.956;7.002;2023-07-09T04:06:41;22.80;99.90
5960;DHT22;3006;50.956;7.002;2023-07-09T04:09:11;22.80;99.90
5960;DHT22;3006;50.956;7.002;2023-07-09T04:11:39;22.80;99.90
5960;DHT22;3006;50.956;7.002;2023-07-09T04:14:07;22.80;99.90
5960;DHT22;3006;50.956;7.002;2023-07-09T04:16:35;22.70;99.90
5960;DHT22;3006;50.956;7.002;2023-07-09T04:19:03;22.80;99.90
5960;DHT22;3006;50.956;7.002;2023-07-09T04:21:31;22.80;99.90
5960;DHT22;3006;50.956;7.002;2023-07-09T04:23:59;22.90;99.90
5960;DHT22;3006;50.956;7.002;2023-07-09T04:26:29;22.90;99.90
5960;DHT22;3006;50.956;7.002;2023-07-09T04:28:57;22.90;99.90
5960;DHT22;3006;50.956;7.002;2023-07-09T04:31:25;22.90;99.90
5960;DHT22;3006;50.956;7.002;2023-07-09T04:33:53;22.90;99.90
5960;DHT22;3006;50.956;7.002;2023-07-09T04:36:21;22.90;99.90
5960;DHT22;3006;50.956;7.002;2023-07-09T04:38:49;22.90;99.90
5960;DHT22;3006;50.956;7.002;2023-07-09T04:41:17;22.90;99.90
5960;DHT22;3006;50.956;7.002;2023-07-09T04:43:46;22.90;99.90
5960;DHT22;3006;50.956;7.002;2023-07-09T04:46:15;22.90;99.90
5960;DHT22;3006;50.956;7.002;2023-07-09T04:48:43;22.90;99.90
5960;DHT22;3006;50.956;7.002;2023-07-09T04:51:11;22.90;99.90
5960;DHT22;3006;50.956;7.002;2023-07-09T04:53:39;22.90;99.90
5960;DHT22;3006;50.956;7.002;2023-07-09T04:56:07;23.00;99.90
5960;DHT22;3006;50.956;7.002;2023-07-09T04:58:36;23.00;99.90
5960;DHT22;3006;50.956;7.002;2023-07-09T05:01:05;23.00;99.90
5960;DHT22;3006;50.956;7.002;2023-07-09T05:03:33;23.00;99.90
5960;DHT22;3006;50.956;7.002;2023-07-09T05:06:02;23.10;99.90
5960;DHT22;3006;50.956;7.002;2023-07-09T05:08:31;23.10;99.90
5960;DHT22;3006;50.956;7.002;2023-07-09T05:10:59;23.20;99.90
5960;DHT22;3006;50.956;7.002;2023-07-09T05:13:27;23.20;99.90
5960;DHT22;3006;50.956;7.002;2023-07-09T05:15:55;23.20;99.90
5960;DHT22;3006;50.956;7.002;2023-07-09T05:18:25;23.20;99.90
5960;DHT22;3006;50.956;7.002;2023-07-09T05:20:53;23.30;99.90
5960;DHT22;3006;50.956;7.002;2023-07-09T05:23:21;23.30;99.90
5960;DHT22;3006;50.956;7.002;2023-07-09T05:25:49;23.20;99.90
5960;DHT22;3006;50.956;7.002;2023-07-09T05:28:17;23.30;99.90
5960;DHT22;3006;50.956;7.002;2023-07-09T05:30:45;23.30;99.90
5960;DHT22;3006;50.956;7.002;2023-07-09T05:33:13;23.40;99.90
5960;DHT22;3006;50.956;7.002;2023-07-09T05:35:43;23.50;99.90
5960;DHT22;3006;50.956;7.002;2023-07-09T05:38:12;23.50;99.90
5960;DHT22;3006;50.956;7.002;2023-07-09T05:40:40;23.60;99.90
5960;DHT22;3006;50.956;7.002;2023-07-09T05:43:09;23.60;99.90
5960;DHT22;3006;50.956;7.002;2023-07-09T05:45:38;23.70;99.90
5960;DHT22;3006;50.956;7.002;2023-07-09T05:48:06;23.70;99.90
5960;DHT22;3006;50.956;7.002;2023-07-09T05:50:35;23.80;99.90
5960;DHT22;3006;50.956;7.002;2023-07-09T05:53:04;23.80;99.90
5960;DHT22;3006;50.956;7.002;2023-07-09T05:55:33;23.90;99.90
5960;DHT22;3006;50.956;7.002;2023-07-09T05:58:01;23.90;99.90
5960;DHT22;3006;50.956;7.002;2023-07-09T06:00:29;23.90;99.90
5960;DHT22;3006;50.956;7.002;2023-07-09T06:02:57;24.00;99.90
5960;DHT22;3006;50.956;7.002;2023-07-09T06:05:26;24.10;99.90
5960;DHT22;3006;50.956;7.002;2023-07-09T06:07:56;24.10;99.90
5960;DHT22;3006;50.956;7.002;2023-07-09T06:10:25;24.20;99.90
5960;DHT22;3006;50.956;7.002;2023-07-09T06:12:53;24.30;99.90
5960;DHT22;3006;50.956;7.002;2023-07-09T06:15:21;24.30;99.90
5960;DHT22;3006;50.956;7.002;2023-07-09T06:17:50;24.40;99.90
5960;DHT22;3006;50.956;7.002;2023-07-09T06:20:18;24.40;99.90
5960;DHT22;3006;50.956;7.002;2023-07-09T06:22:46;24.50;99.90
5960;DHT22;3006;50.956;7.002;2023-07-09T06:25:14;24.50;99.90
5960;DHT22;3006;50.956;7.002;2023-07-09T06:27:43;24.60;99.90
5960;DHT22;3006;50.956;7.002;2023-07-09T06:30:12;24.70;99.90
5960;DHT22;3006;50.956;7.002;2023-07-09T06:32:41;24.70;99.90
5960;DHT22;3006;50.956;7.002;2023-07-09T06:35:09;24.80;99.90
5960;DHT22;3006;50.956;7.002;2023-07-09T06:37:37;24.90;99.90
5960;DHT22;3006;50.956;7.002;2023-07-09T06:40:06;24.90;99.90
5960;DHT22;3006;50.956;7.002;2023-07-09T06:42:35;25.00;99.90
5960;DHT22;3006;50.956;7.002;2023-07-09T06:45:13;25.10;99.90
5960;DHT22;3006;50.956;7.002;2023-07-09T06:47:41;25.10;99.90
5960;DHT22;3006;50.956;7.002;2023-07-09T06:50:10;25.20;99.90
5960;DHT22;3006;50.956;7.002;2023-07-09T06:52:38;25.20;99.90
5960;DHT22;3006;50.956;7.002;2023-07-09T06:55:06;25.30;99.90
5960;DHT22;3006;50.956;7.002;2023-07-09T06:57:34;25.30;99.90
5960;DHT22;3006;50.956;7.002;2023-07-09T07:00:03;25.40;99.90
5960;DHT22;3006;50.956;7.002;2023-07-09T07:02:33;25.50;99.90
5960;DHT22;3006;50.956;7.002;2023-07-09T07:05:02;25.50;99.90
5960;DHT22;3006;50.956;7.002;2023-07-09T07:07:30;25.50;99.90
5960;DHT22;3006;50.956;7.002;2023-07-09T07:09:58;25.60;99.90
5960;DHT22;3006;50.956;7.002;2023-07-09T07:12:28;25.70;99.90
5960;DHT22;3006;50.956;7.002;2023-07-09T07:14:56;25.70;99.90
5960;DHT22;3006;50.956;7.002;2023-07-09T07:17:24;25.80;99.90
5960;DHT22;3006;50.956;7.002;2023-07-09T07:19:53;25.80;99.90
5960;DHT22;3006;50.956;7.002;2023-07-09T07:22:21;25.80;99.90
5960;DHT22;3006;50.956;7.002;2023-07-09T07:24:49;25.90;99.90
5960;DHT22;3006;50.956;7.002;2023-07-09T07:27:17;26.00;99.90
5960;DHT22;3006;50.956;7.002;2023-07-09T07:29:46;26.00;99.90
5960;DHT22;3006;50.956;7.002;2023-07-09T07:32:14;26.10;99.90
5960;DHT22;3006;50.956;7.002;2023-07-09T07:34:42;26.10;99.90
5960;DHT22;3006;50.956;7.002;2023-07-09T07:37:11;26.20;99.90
5960;DHT22;3006;50.956;7.002;2023-07-09T07:39:39;26.30;99.90
5960;DHT22;3006;50.956;7.002;2023-07-09T07:42:08;26.30;99.90
5960;DHT22;3006;50.956;7.002;2023-07-09T07:44:37;26.40;99.90
5960;DHT22;3006;50.956;7.002;2023-07-09T07:47:06;26.40;99.90
5960;DHT22;3006;50.956;7.002;2023-07-09T07:49:34;26.50;99.90
5960;DHT22;3006;50.956;7.002;2023-07-09T07:52:02;26.50;99.90
5960;DHT22;3006;50.956;7.002;2023-07-09T07:54:32;26.50;99.90
5960;DHT22;3006;50.956;7.002;2023-07-09T07:57:00;26.60;99.90
5960;DHT22;3006;50.956;7.002;2023-07-09T07:59:28;26.60;99.90
5960;DHT22;3006;50.956;7.002;2023-07-09T08:01:59;26.70;99.90
5960;DHT22;3006;50.956;7.002;2023-07-09T08:04:27;26.80;99.90
5960;DHT22;3006;50.956;7.002;2023-07-09T08:06:56;26.90;99.90
5960;DHT22;3006;50.956;7.002;2023-07-09T08:09:25;27.00;99.90
5960;DHT22;3006;50.956;7.002;2023-07-09T08:11:54;27.00;99.90
5960;DHT22;3006;50.956;7.002;2023-07-09T08:14:22;27.00;99.90
5960;DHT22;3006;50.956;7.002;2023-07-09T08:16:51;27.00;99.90
5960;DHT22;3006;50.956;7.002;2023-07-09T08:19:19;27.10;99.90
5960;DHT22;3006;50.956;7.002;2023-07-09T08:21:48;27.20;99.90
5960;DHT22;3006;50.956;7.002;2023-07-09T08:24:16;27.30;99.90
5960;DHT22;3006;50.956;7.002;2023-07-09T08:26:44;27.40;99.90
5960;DHT22;3006;50.956;7.002;2023-07-09T08:29:13;27.40;99.90
5960;DHT22;3006;50.956;7.002;2023-07-09T08:31:41;27.40;99.90
5960;DHT22;3006;50.956;7.002;2023-07-09T08:34:09;27.60;99.90
5960;DHT22;3006;50.956;7.002;2023-07-09T08:36:38;27.60;99.90
5960;DHT22;3006;50.956;7.002;2023-07-09T08:39:06;27.70;99.90
5960;DHT22;3006;50.956;7.002;2023-07-09T08:41:40;27.80;99.90
5960;DHT22;3006;50.956;7.002;2023-07-09T08:44:24;27.90;99.90
5960;DHT22;3006;50.956;7.002;2023-07-09T08:47:00;27.90;99.90
5960;DHT22;3006;50.956;7.002;2023-07-09T08:49:37;28.00;99.90
5960;DHT22;3006;50.956;7.002;2023-07-09T08:52:12;28.10;99.90
5960;DHT22;3006;50.956;7.002;2023-07-09T08:54:42;28.10;99.90
5960;DHT22;3006;50.956;7.002;2023-07-09T08:57:20;28.10;99.90
5960;DHT22;3006;50.956;7.002;2023-07-09T08:59:55;28.20;99.90
5960;DHT22;3006;50.956;7.002;2023-07-09T09:02:30;28.30;99.90
5960;DHT22;3006;50.956;7.002;2023-07-09T09:05:01;28.30;99.90
5960;DHT22;3006;50.956;7.002;2023-07-09T09:07:39;28.40;99.90
5960;DHT22;3006;50.956;7.002;2023-07-09T09:10:13;28.50;99.90
5960;DHT22;3006;50.956;7.002;2023-07-09T09:12:51;28.50;99.90
5960;DHT22;3006;50.956;7.002;2023-07-09T09:15:25;28.50;99.90
5960;DHT22;3006;50.956;7.002;2023-07-09T09:17:58;28.70;99.80
5960;DHT22;3006;50.956;7.002;2023-07-09T09:20:27;28.70;99.90
5960;DHT22;3006;50.956;7.002;2023-07-09T09:23:01;28.70;99.90
5960;DHT22;3006;50.956;7.002;2023-07-09T09:25:40;28.70;99.90
5960;DHT22;3006;50.956;7.002;2023-07-09T09:28:08;28.80;99.90
5960;DHT22;3006;50.956;7.002;2023-07-09T09:30:38;28.90;99.90
5960;DHT22;3006;50.956;7.002;2023-07-09T09:33:07;28.80;99.90
5960;DHT22;3006;50.956;7.002;2023-07-09T09:35:40;28.80;99.90
5960;DHT22;3006;50.956;7.002;2023-07-09T09:38:12;28.90;99.80
5960;DHT22;3006;50.956;7.002;2023-07-09T09:40:40;28.80;99.90
5960;DHT22;3006;50.956;7.002;2023-07-09T09:43:12;28.70;99.90
5960;DHT22;3006;50.956;7.002;2023-07-09T09:45:44;28.80;99.90
5960;DHT22;3006;50.956;7.002;2023-07-09T09:48:19;28.90;99.90
5960;DHT22;3006;50.956;7.002;2023-07-09T09:50:48;29.00;99.40
5960;DHT22;3006;50.956;7.002;2023-07-09T09:53:21;29.20;99.20
5960;DHT22;3006;50.956;7.002;2023-07-09T09:55:51;29.30;99.10
5960;DHT22;3006;50.956;7.002;2023-07-09T09:58:20;29.40;99.20
5960;DHT22;3006;50.956;7.002;2023-07-09T10:00:51;29.50;98.80
5960;DHT22;3006;50.956;7.002;2023-07-09T10:03:19;29.60;98.10
5960;DHT22;3006;50.956;7.002;2023-07-09T10:05:51;29.60;98.10
5960;DHT22;3006;50.956;7.002;2023-07-09T10:08:28;29.70;98.50
5960;DHT22;3006;50.956;7.002;2023-07-09T10:11:10;29.80;98.80
5960;DHT22;3006;50.956;7.002;2023-07-09T10:13:43;29.80;98.70
5960;DHT22;3006;50.956;7.002;2023-07-09T10:16:18;29.70;98.50
5960;DHT22;3006;50.956;7.002;2023-07-09T10:18:53;29.80;98.30
5960;DHT22;3006;50.956;7.002;2023-07-09T10:21:30;29.90;98.00
5960;DHT22;3006;50.956;7.002;2023-07-09T10:24:11;29.90;97.60
5960;DHT22;3006;50.956;7.002;2023-07-09T10:26:46;30.00;97.70
5960;DHT22;3006;50.956;7.002;2023-07-09T10:29:29;30.10;97.20
5960;DHT22;3006;50.956;7.002;2023-07-09T10:32:09;30.40;97.00
5960;DHT22;3006;50.956;7.002;2023-07-09T10:34:48;30.60;96.70
5960;DHT22;3006;50.956;7.002;2023-07-09T10:40:31;30.70;96.60
5960;DHT22;3006;50.956;7.002;2023-07-09T10:43:03;30.90;96.10
5960;DHT22;3006;50.956;7.002;2023-07-09T10:45:38;30.90;95.60
5960;DHT22;3006;50.956;7.002;2023-07-09T10:48:12;30.90;95.30
5960;DHT22;3006;50.956;7.002;2023-07-09T10:50:44;30.90;95.40
5960;DHT22;3006;50.956;7.002;2023-07-09T10:53:16;31.00;95.50
5960;DHT22;3006;50.956;7.002;2023-07-09T10:55:55;31.00;95.40
5960;DHT22;3006;50.956;7.002;2023-07-09T10:58:33;30.90;95.10
5960;DHT22;3006;50.956;7.002;2023-07-09T11:01:03;30.80;95.50
5960;DHT22;3006;50.956;7.002;2023-07-09T11:03:38;30.80;95.80
5960;DHT22;3006;50.956;7.002;2023-07-09T11:06:14;30.90;95.40
5960;DHT22;3006;50.956;7.002;2023-07-09T11:08:44;31.10;94.20
5960;DHT22;3006;50.956;7.002;2023-07-09T11:11:23;31.10;94.10
5960;DHT22;3006;50.956;7.002;2023-07-09T11:13:56;31.10;94.20
5960;DHT22;3006;50.956;7.002;2023-07-09T11:16:30;31.10;94.20
5960;DHT22;3006;50.956;7.002;2023-07-09T11:19:02;31.20;94.40
5960;DHT22;3006;50.956;7.002;2023-07-09T11:21:32;31.40;93.90
5960;DHT22;3006;50.956;7.002;2023-07-09T11:24:03;31.40;93.80
5960;DHT22;3006;50.956;7.002;2023-07-09T11:26:34;31.60;93.40
5960;DHT22;3006;50.956;7.002;2023-07-09T11:29:15;31.70;93.40
5960;DHT22;3006;50.956;7.002;2023-07-09T11:31:45;32.00;91.70
5960;DHT22;3006;50.956;7.002;2023-07-09T11:34:19;32.30;91.10
5960;DHT22;3006;50.956;7.002;2023-07-09T11:36:50;32.30;91.20
5960;DHT22;3006;50.956;7.002;2023-07-09T11:39:21;32.30;91.60
5960;DHT22;3006;50.956;7.002;2023-07-09T11:41:49;32.20;91.70
5960;DHT22;3006;50.956;7.002;2023-07-09T11:44:19;32.30;91.10
5960;DHT22;3006;50.956;7.002;2023-07-09T11:47:12;32.60;91.30
5960;DHT22;3006;50.956;7.002;2023-07-09T11:49:57;32.60;91.10
5960;DHT22;3006;50.956;7.002;2023-07-09T11:52:28;32.60;91.20
5960;DHT22;3006;50.956;7.002;2023-07-09T11:55:02;32.80;90.80
5960;DHT22;3006;50.956;7.002;2023-07-09T11:57:30;32.80;90.00
5960;DHT22;3006;50.956;7.002;2023-07-09T11:59:59;32.80;88.20
5960;DHT22;3006;50.956;7.002;2023-07-09T12:02:38;32.90;89.40
5960;DHT22;3006;50.956;7.002;2023-07-09T12:05:08;32.90;89.30
5960;DHT22;3006;50.956;7.002;2023-07-09T12:07:37;33.00;88.80
5960;DHT22;3006;50.956;7.002;2023-07-09T12:10:18;33.00;86.90
5960;DHT22;3006;50.956;7.002;2023-07-09T12:12:47;33.10;85.60
5960;DHT22;3006;50.956;7.002;2023-07-09T12:15:18;33.10;85.80
5960;DHT22;3006;50.956;7.002;2023-07-09T12:17:57;33.10;85.90
5960;DHT22;3006;50.956;7.002;2023-07-09T12:20:29;33.20;86.20
5960;DHT22;3006;50.956;7.002;2023-07-09T12:22:58;33.10;86.50
5960;DHT22;3006;50.956;7.002;2023-07-09T12:25:28;33.00;87.00
5960;DHT22;3006;50.956;7.002;2023-07-09T12:27:58;33.00;85.60
5960;DHT22;3006;50.956;7.002;2023-07-09T12:30:32;33.10;86.00
5960;DHT22;3006;50.956;7.002;2023-07-09T12:33:00;33.20;85.50
5960;DHT22;3006;50.956;7.002;2023-07-09T12:35:36;33.20;84.90
5960;DHT22;3006;50.956;7.002;2023-07-09T12:38:11;33.10;85.40
5960;DHT22;3006;50.956;7.002;2023-07-09T12:40:44;32.90;85.30
5960;DHT22;3006;50.956;7.002;2023-07-09T12:43:12;32.80;83.80
5960;DHT22;3006;50.956;7.002;2023-07-09T12:45:40;32.80;83.50
5960;DHT22;3006;50.956;7.002;2023-07-09T12:48:10;32.70;83.00
5960;DHT22;3006;50.956;7.002;2023-07-09T12:50:49;32.60;83.70
5960;DHT22;3006;50.956;7.002;2023-07-09T12:53:19;32.50;83.70
5960;DHT22;3006;50.956;7.002;2023-07-09T12:55:48;32.40;84.00
5960;DHT22;3006;50.956;7.002;2023-07-09T12:58:19;32.40;84.20
5960;DHT22;3006;50.956;7.002;2023-07-09T13:00:49;32.40;85.00
5960;DHT22;3006;50.956;7.002;2023-07-09T13:03:20;32.30;83.50
5960;DHT22;3006;50.956;7.002;2023-07-09T13:05:58;32.40;83.50
5960;DHT22;3006;50.956;7.002;2023-07-09T13:08:28;32.50;82.70
5960;DHT22;3006;50.956;7.002;2023-07-09T13:10:57;32.50;83.20
5960;DHT22;3006;50.956;7.002;2023-07-09T13:13:25;32.40;82.40
5960;DHT22;3006;50.956;7.002;2023-07-09T13:15:56;32.50;81.70
5960;DHT22;3006;50.956;7.002;2023-07-09T13:18:25;32.60;81.70
5960;DHT22;3006;50.956;7.002;2023-07-09T13:20:55;32.60;82.10
5960;DHT22;3006;50.956;7.002;2023-07-09T13:23:25;32.60;80.80
5960;DHT22;3006;50.956;7.002;2023-07-09T13:25:54;32.60;80.90
5960;DHT22;3006;50.956;7.002;2023-07-09T13:28:27;32.60;80.90
5960;DHT22;3006;50.956;7.002;2023-07-09T13:30:59;32.60;81.10
5960;DHT22;3006;50.956;7.002;2023-07-09T13:33:28;32.60;81.30
5960;DHT22;3006;50.956;7.002;2023-07-09T13:35:57;32.50;82.70
5960;DHT22;3006;50.956;7.002;2023-07-09T13:38:25;32.40;85.60
5960;DHT22;3006;50.956;7.002;2023-07-09T13:40:55;32.30;86.70
5960;DHT22;3006;50.956;7.002;2023-07-09T13:43:28;32.10;87.10
5960;DHT22;3006;50.956;7.002;2023-07-09T13:45:56;32.00;88.50
5960;DHT22;3006;50.956;7.002;2023-07-09T13:48:26;31.80;90.30
5960;DHT22;3006;50.956;7.002;2023-07-09T13:50:57;31.60;90.60
5960;DHT22;3006;50.956;7.002;2023-07-09T13:53:28;31.40;90.90
5960;DHT22;3006;50.956;7.002;2023-07-09T13:55:57;31.20;91.20
5960;DHT22;3006;50.956;7.002;2023-07-09T13:58:26;31.10;91.60
5960;DHT22;3006;50.956;7.002;2023-07-09T14:00:57;31.10;91.70
5960;DHT22;3006;50.956;7.002;2023-07-09T14:03:33;31.10;91.40
5960;DHT22;3006;50.956;7.002;2023-07-09T14:06:03;31.00;91.00
5960;DHT22;3006;50.956;7.002;2023-07-09T14:08:31;31.00;90.60
5960;DHT22;3006;50.956;7.002;2023-07-09T14:10:59;31.00;90.20
5960;DHT22;3006;50.956;7.002;2023-07-09T14:13:29;31.00;89.20
5960;DHT22;3006;50.956;7.002;2023-07-09T14:15:58;31.10;86.40
5960;DHT22;3006;50.956;7.002;2023-07-09T14:18:27;30.90;86.50
5960;DHT22;3006;50.956;7.002;2023-07-09T14:20:56;30.80;86.80
5960;DHT22;3006;50.956;7.002;2023-07-09T14:23:25;30.60;86.80
5960;DHT22;3006;50.956;7.002;2023-07-09T14:25:53;30.60;86.60
5960;DHT22;3006;50.956;7.002;2023-07-09T14:28:21;30.50;88.10
5960;DHT22;3006;50.956;7.002;2023-07-09T14:30:50;30.40;89.20
5960;DHT22;3006;50.956;7.002;2023-07-09T14:33:20;30.30;88.80
5960;DHT22;3006;50.956;7.002;2023-07-09T14:35:49;30.40;88.40
5960;DHT22;3006;50.956;7.002;2023-07-09T14:38:19;30.40;89.20
5960;DHT22;3006;50.956;7.002;2023-07-09T14:40:50;30.10;89.40
5960;DHT22;3006;50.956;7.002;2023-07-09T14:43:19;29.90;90.30
5960;DHT22;3006;50.956;7.002;2023-07-09T14:45:48;29.60;91.10
5960;DHT22;3006;50.956;7.002;2023-07-09T14:48:17;29.30;91.70
5960;DHT22;3006;50.956;7.002;2023-07-09T14:50:47;29.10;92.50
5960;DHT22;3006;50.956;7.002;2023-07-09T14:53:17;28.70;96.70
5960;DHT22;3006;50.956;7.002;2023-07-09T14:55:49;28.30;98.90
5960;DHT22;3006;50.956;7.002;2023-07-09T14:58:20;27.70;99.40
5960;DHT22;3006;50.956;7.002;2023-07-09T15:00:49;27.40;99.90
5960;DHT22;3006;50.956;7.002;2023-07-09T15:03:19;27.20;99.90
5960;DHT22;3006;50.956;7.002;2023-07-09T15:05:48;27.10;99.90
5960;DHT22;3006;50.956;7.002;2023-07-09T15:08:18;27.00;99.90
5960;DHT22;3006;50.956;7.002;2023-07-09T15:10:47;26.90;99.90
5960;DHT22;3006;50.956;7.002;2023-07-09T15:13:19;26.80;99.90
5960;DHT22;3006;50.956;7.002;2023-07-09T15:15:48;26.90;99.90
5960;DHT22;3006;50.956;7.002;2023-07-09T15:18:16;26.90;99.90
5960;DHT22;3006;50.956;7.002;2023-07-09T15:20:48;27.10;99.90
5960;DHT22;3006;50.956;7.002;2023-07-09T15:23:17;27.10;99.90
5960;DHT22;3006;50.956;7.002;2023-07-09T15:25:46;27.20;99.90
5960;DHT22;3006;50.956;7.002;2023-07-09T15:28:14;27.10;99.90
5960;DHT22;3006;50.956;7.002;2023-07-09T15:30:43;27.00;99.90
5960;DHT22;3006;50.956;7.002;2023-07-09T15:33:14;26.90;99.90
5960;DHT22;3006;50.956;7.002;2023-07-09T15:35:44;26.80;99.90
5960;DHT22;3006;50.956;7.002;2023-07-09T15:38:25;26.70;99.90
5960;DHT22;3006;50.956;7.002;2023-07-09T15:40:54;26.70;99.90
5960;DHT22;3006;50.956;7.002;2023-07-09T15:43:23;26.70;99.90
5960;DHT22;3006;50.956;7.002;2023-07-09T15:45:55;26.70;99.90
5960;DHT22;3006;50.956;7.002;2023-07-09T15:48:27;26.70;99.90
5960;DHT22;3006;50.956;7.002;2023-07-09T15:50:58;26.70;99.90
5960;DHT22;3006;50.956;7.002;2023-07-09T15:53:26;26.80;99.90
5960;DHT22;3006;50.956;7.002;2023-07-09T15:55:57;26.80;99.90
5960;DHT22;3006;50.956;7.002;2023-07-09T15:58:28;26.70;99.90
5960;DHT22;3006;50.956;7.002;2023-07-09T16:00:58;26.60;99.90
5960;DHT22;3006;50.956;7.002;2023-07-09T16:03:26;26.50;99.90
5960;DHT22;3006;50.956;7.002;2023-07-09T16:05:54;26.50;99.90
5960;DHT22;3006;50.956;7.002;2023-07-09T16:08:22;26.40;99.90
5960;DHT22;3006;50.956;7.002;2023-07-09T16:10:50;26.40;99.90
5960;DHT22;3006;50.956;7.002;2023-07-09T16:13:21;26.40;99.90
5960;DHT22;3006;50.956;7.002;2023-07-09T16:15:50;26.50;99.90
5960;DHT22;3006;50.956;7.002;2023-07-09T16:18:20;26.40;99.90
5960;DHT22;3006;50.956;7.002;2023-07-09T16:20:48;26.40;99.90
5960;DHT22;3006;50.956;7.002;2023-07-09T16:23:19;26.40;99.90
5960;DHT22;3006;50.956;7.002;2023-07-09T16:25:49;26.40;99.90
5960;DHT22;3006;50.956;7.002;2023-07-09T16:28:19;26.40;99.90